Buoy 46770

sailwx.info

Track history (hours):
 
Tides and Currents Weather Stations Pressure Air Temp Water Temp Dewpoint Dewpoint Depression Visibility Wind Speed Wind Dir Waves Ship Positions

Drifting buoy 46770

Last reported at 2014-Aug-21 10:30 UTC. Time now 2014-Aug-21 20:02 UTC.
Position N 50°43' E 169°27'.

Barometer 1007.9 mb
Water temperature 11.3 ° C

Date/timePositionNaut miles runAvg speedWind from/ knotsBaromVisibWave heightAir tempDewpointWater temp
2014-Aug-21 10:30N 50°43' E 169°27'6 0.9 1007.9 11.3
2014-Aug-21 03:30N 50°42' E 169°36'2 2.4 1007.4 11.3
2014-Aug-21 02:30N 50°43' E 169°39'1 0.6 1007.6 11.3
2014-Aug-21 01:30N 50°44' E 169°40'0 0.1 1007.9 11.3
2014-Aug-21 00:30N 50°44' E 169°40'2 0.8 1007.8 11.3
2014-Aug-20 22:30N 50°45' E 169°38'0 0.0 1008.4 11.3
2014-Aug-20 21:30N 50°45' E 169°38'2 0.5 1008.5 11.2
2014-Aug-20 18:30N 50°43' E 169°38'0 0.1 1008.7 11.2
2014-Aug-20 17:30N 50°43' E 169°38'5 1.4 1008.6 11.2
2014-Aug-20 13:30N 50°44' E 169°47'0 0.0 1008.9 11.2
2014-Aug-20 10:30N 50°44' E 169°47'1 0.7 1009.1 11.3
2014-Aug-20 09:30N 50°45' E 169°47'0 0.0 1009.3 11.3
2014-Aug-20 07:30N 50°45' E 169°47'1 0.2 1008.7 11.3
2014-Aug-20 03:30N 50°45' E 169°48'5 0.6 1007.8 11.3
2014-Aug-19 19:30N 50°44' E 169°55'2 1.5 1007.2 11.2
2014-Aug-19 18:30N 50°45' E 169°57'1 0.6 1006.5 11.2
2014-Aug-19 16:30N 50°46' E 169°58'1 0.9 1005.5 11.2
2014-Aug-19 15:30N 50°46' E 169°59'1 1.4 1005.2 11.2
2014-Aug-19 14:30N 50°47' E 169°58'0 0.2 1004.9 11.2
2014-Aug-19 13:30N 50°47' E 169°58'0 0.0 1004.6 11.2
2014-Aug-19 12:30N 50°47' E 169°58'2 0.5 1004.3 11.2
2014-Aug-19 07:30N 50°46' E 170°01'2 1.9 1003.9 11.3
2014-Aug-19 06:30N 50°46' E 170°04'0 0.1 1003.6 11.3
2014-Aug-19 04:30N 50°46' E 170°04'0 0.2 1003.7 11.3
2014-Aug-19 03:30N 50°46' E 170°04'2 1.0 1003.8 11.3
2014-Aug-19 01:30N 50°47' E 170°07'1 0.7 1004.4 11.2
2014-Aug-18 23:30N 50°48' E 170°07'2 0.6 1004.9 11.2
2014-Aug-18 20:30N 50°50' E 170°06'1 0.3 1005.8 11.2
2014-Aug-18 18:30N 50°49' E 170°06'2 0.4 1006.6 11.2
2014-Aug-18 13:30N 50°47' E 170°08'5 1.2 1008.7 11.2
2014-Aug-18 09:30N 50°49' E 170°15'3 0.6 1010.1 11.2
2014-Aug-18 04:30N 50°52' E 170°13'0 0.2 1009.5 11.3
2014-Aug-18 03:30N 50°52' E 170°13'1 0.9 1009.6 11.3
2014-Aug-18 02:30N 50°52' E 170°11'2 1.7 1009.7 11.3
2014-Aug-18 01:30N 50°50' E 170°13'5 0.9 1009.9 11.3
2014-Aug-17 20:30N 50°51' E 170°20'0 0.0 1009.8 11.0
2014-Aug-17 18:30N 50°51' E 170°20'2 2.2 1009.7 11.0
2014-Aug-17 17:30N 50°53' E 170°21'2 0.9 1009.7 11.0
2014-Aug-17 15:30N 50°55' E 170°19'2 0.3 1009.5 11.0
2014-Aug-17 08:30N 50°53' E 170°17'5 1.0 1009.2 11.0
2014-Aug-17 03:30N 50°55' E 170°24'1 1.0 1009.4 11.0
2014-Aug-17 02:30N 50°55' E 170°25'0 0.0 1009.8 11.0
2014-Aug-17 01:30N 50°55' E 170°25'1 1.3 1010.0 11.1
2014-Aug-17 00:30N 50°57' E 170°25'2 0.8 1010.2 11.1
2014-Aug-16 21:30N 50°58' E 170°21'2 0.6 1010.3 11.0
2014-Aug-16 18:30N 50°56' E 170°21'0 0.2 1010.5 11.0
2014-Aug-16 16:30N 50°56' E 170°21'2 1.8 1010.5 11.1
2014-Aug-16 15:30N 50°56' E 170°24'0 0.0 1010.6 11.1
2014-Aug-16 14:30N 50°56' E 170°24'4 1.8 1010.6 11.1
2014-Aug-16 12:30N 50°58' E 170°28'1 0.3 1011.1 11.2
2014-Aug-16 09:30N 50°59' E 170°29'1 0.9 1011.1 11.2
2014-Aug-16 08:30N 50°60' E 170°29'2 1.6 1011.1 11.2
2014-Aug-16 07:30N 51°01' E 170°27'2 0.4 1010.8 11.2
2014-Aug-16 03:30N 51°00' E 170°25'5 1.0 1010.6 11.5
2014-Aug-15 22:30N 51°00' E 170°32'0 0.0 1011.0 11.0
2014-Aug-15 21:30N 51°00' E 170°32'0 0.0 1010.6 10.9
2014-Aug-15 19:30N 51°00' E 170°32'1 0.9 1010.4 10.8
2014-Aug-15 18:30N 51°01' E 170°33'2 1.1 1009.8 10.8
2014-Aug-15 16:30N 51°03' E 170°32'3 2.9 1009.1 10.8
2014-Aug-15 15:30N 51°04' E 170°28'1 0.5 1009.0 10.8
2014-Aug-15 12:30N 51°03' E 170°27'2 1.7 1008.6 10.8
2014-Aug-15 11:30N 51°04' E 170°28'2 0.9 1008.4 10.8
2014-Aug-15 09:30N 51°03' E 170°28'4 0.9 1008.3 10.8
2014-Aug-15 04:30N 51°04' E 170°35'1 0.5 1006.9 10.8
2014-Aug-15 02:30N 51°05' E 170°34'2 0.8 1006.9 10.8
2014-Aug-15 00:30N 51°06' E 170°35'3 0.5 1006.8 10.8
2014-Aug-14 18:30N 51°07' E 170°30'0 0.0 1006.7 10.7
2014-Aug-14 17:30N 51°07' E 170°30'1 0.6 1006.6 10.7
2014-Aug-14 16:30N 51°06' E 170°30'3 1.5 1006.3 10.7
2014-Aug-14 14:30N 51°06' E 170°35'2 1.2 1005.7 10.7
2014-Aug-14 12:30N 51°09' E 170°36'1 0.4 1005.7 10.7
2014-Aug-14 09:30N 51°10' E 170°37'4 1.8 1005.6 10.7
2014-Aug-14 07:30N 51°11' E 170°32'0 0.3 1004.7 10.7
2014-Aug-14 06:30N 51°11' E 170°32'1 0.3 1004.4 10.7
2014-Aug-14 03:30N 51°11' E 170°31'2 1.0 1004.5 10.7
2014-Aug-14 01:30N 51°09' E 170°30'1 1.0 1005.1 10.7
2014-Aug-14 00:30N 51°08' E 170°30'6 1.5 1005.4 10.7
2014-Aug-13 20:30N 51°12' E 170°37'4 1.0 1006.6 10.8
2014-Aug-13 16:30N 51°13' E 170°31'0 0.0 1008.6 10.8
2014-Aug-13 15:30N 51°13' E 170°31'0 0.1 1009.7 10.8
2014-Aug-13 14:30N 51°14' E 170°31'0 0.0 1010.3 10.8
2014-Aug-13 13:30N 51°14' E 170°31'4 0.9 1011.0 10.8
2014-Aug-13 09:30N 51°10' E 170°31'0 0.0 1012.3 10.9
2014-Aug-13 08:30N 51°10' E 170°31'5 2.5 1012.7 10.9
2014-Aug-13 06:30N 51°13' E 170°37'2 0.4 1012.5 11.0
2014-Aug-13 01:30N 51°15' E 170°36'1 1.1 1014.1 10.8
2014-Aug-13 00:30N 51°16' E 170°35'1 0.6 1013.8 10.7
2014-Aug-12 22:30N 51°16' E 170°33'3 0.5 1014.0 10.6
2014-Aug-12 16:30N 51°13' E 170°32'5 1.2 1013.6 10.5
2014-Aug-12 12:30N 51°18' E 170°34'0 0.0 1013.4 10.5
2014-Aug-12 10:30N 51°18' E 170°34'4 0.7 1013.1 10.5
2014-Aug-12 04:30N 51°17' E 170°27'0 0.0 1011.3 10.6
2014-Aug-12 02:30N 51°17' E 170°27'1 0.5 1010.2 10.5
2014-Aug-12 00:30N 51°17' E 170°28'1 1.3 1009.5 10.4
2014-Aug-11 23:30N 51°17' E 170°30'5 2.3 1008.9 10.4
2014-Aug-11 21:30N 51°21' E 170°32'1 0.6 1007.7 10.4
2014-Aug-11 19:30N 51°22' E 170°30'2 0.8 1006.7 10.4
2014-Aug-11 17:30N 51°23' E 170°28'1 0.5 1005.2 10.4
2014-Aug-11 16:30N 51°23' E 170°28'0 0.2 1004.6 10.4
2014-Aug-11 15:30N 51°24' E 170°28'3 0.6 1004.1 10.4
2014-Aug-11 10:30N 51°21' E 170°26'   999.0 10.5
Track history (hours):
 
Tides and Currents Weather Stations Pressure Air Temp Water Temp Dewpoint Dewpoint Depression Visibility Wind Speed Wind Dir Waves Ship Positions

Drifting buoy 46770

Last reported at 2014-Aug-21 10:30 UTC. Time now 2014-Aug-21 20:02 UTC.
Position N 50°43' E 169°27'.

Barometer 1007.9 mb
Water temperature 11.3 ° C

Date/timePositionNaut miles runAvg speedWind from/ knotsBaromVisibWave heightAir tempDewpointWater temp
2014-Aug-21 10:30N 50°43' E 169°27'6 0.9 1007.9 11.3
2014-Aug-21 03:30N 50°42' E 169°36'2 2.4 1007.4 11.3
2014-Aug-21 02:30N 50°43' E 169°39'1 0.6 1007.6 11.3
2014-Aug-21 01:30N 50°44' E 169°40'0 0.1 1007.9 11.3
2014-Aug-21 00:30N 50°44' E 169°40'2 0.8 1007.8 11.3
2014-Aug-20 22:30N 50°45' E 169°38'0 0.0 1008.4 11.3
2014-Aug-20 21:30N 50°45' E 169°38'2 0.5 1008.5 11.2
2014-Aug-20 18:30N 50°43' E 169°38'0 0.1 1008.7 11.2
2014-Aug-20 17:30N 50°43' E 169°38'5 1.4 1008.6 11.2
2014-Aug-20 13:30N 50°44' E 169°47'0 0.0 1008.9 11.2
2014-Aug-20 10:30N 50°44' E 169°47'1 0.7 1009.1 11.3
2014-Aug-20 09:30N 50°45' E 169°47'0 0.0 1009.3 11.3
2014-Aug-20 07:30N 50°45' E 169°47'1 0.2 1008.7 11.3
2014-Aug-20 03:30N 50°45' E 169°48'5 0.6 1007.8 11.3
2014-Aug-19 19:30N 50°44' E 169°55'2 1.5 1007.2 11.2
2014-Aug-19 18:30N 50°45' E 169°57'1 0.6 1006.5 11.2
2014-Aug-19 16:30N 50°46' E 169°58'1 0.9 1005.5 11.2
2014-Aug-19 15:30N 50°46' E 169°59'1 1.4 1005.2 11.2
2014-Aug-19 14:30N 50°47' E 169°58'0 0.2 1004.9 11.2
2014-Aug-19 13:30N 50°47' E 169°58'0 0.0 1004.6 11.2
2014-Aug-19 12:30N 50°47' E 169°58'2 0.5 1004.3 11.2
2014-Aug-19 07:30N 50°46' E 170°01'2 1.9 1003.9 11.3
2014-Aug-19 06:30N 50°46' E 170°04'0 0.1 1003.6 11.3
2014-Aug-19 04:30N 50°46' E 170°04'0 0.2 1003.7 11.3
2014-Aug-19 03:30N 50°46' E 170°04'2 1.0 1003.8 11.3
2014-Aug-19 01:30N 50°47' E 170°07'1 0.7 1004.4 11.2
2014-Aug-18 23:30N 50°48' E 170°07'2 0.6 1004.9 11.2
2014-Aug-18 20:30N 50°50' E 170°06'1 0.3 1005.8 11.2
2014-Aug-18 18:30N 50°49' E 170°06'2 0.4 1006.6 11.2
2014-Aug-18 13:30N 50°47' E 170°08'5 1.2 1008.7 11.2
2014-Aug-18 09:30N 50°49' E 170°15'3 0.6 1010.1 11.2
2014-Aug-18 04:30N 50°52' E 170°13'0 0.2 1009.5 11.3
2014-Aug-18 03:30N 50°52' E 170°13'1 0.9 1009.6 11.3
2014-Aug-18 02:30N 50°52' E 170°11'2 1.7 1009.7 11.3
2014-Aug-18 01:30N 50°50' E 170°13'5 0.9 1009.9 11.3
2014-Aug-17 20:30N 50°51' E 170°20'0 0.0 1009.8 11.0
2014-Aug-17 18:30N 50°51' E 170°20'2 2.2 1009.7 11.0
2014-Aug-17 17:30N 50°53' E 170°21'2 0.9 1009.7 11.0
2014-Aug-17 15:30N 50°55' E 170°19'2 0.3 1009.5 11.0
2014-Aug-17 08:30N 50°53' E 170°17'5 1.0 1009.2 11.0
2014-Aug-17 03:30N 50°55' E 170°24'1 1.0 1009.4 11.0
2014-Aug-17 02:30N 50°55' E 170°25'0 0.0 1009.8 11.0
2014-Aug-17 01:30N 50°55' E 170°25'1 1.3 1010.0 11.1
2014-Aug-17 00:30N 50°57' E 170°25'2 0.8 1010.2 11.1
2014-Aug-16 21:30N 50°58' E 170°21'2 0.6 1010.3 11.0
2014-Aug-16 18:30N 50°56' E 170°21'0 0.2 1010.5 11.0
2014-Aug-16 16:30N 50°56' E 170°21'2 1.8 1010.5 11.1
2014-Aug-16 15:30N 50°56' E 170°24'0 0.0 1010.6 11.1
2014-Aug-16 14:30N 50°56' E 170°24'4 1.8 1010.6 11.1
2014-Aug-16 12:30N 50°58' E 170°28'1 0.3 1011.1 11.2
2014-Aug-16 09:30N 50°59' E 170°29'1 0.9 1011.1 11.2
2014-Aug-16 08:30N 50°60' E 170°29'2 1.6 1011.1 11.2
2014-Aug-16 07:30N 51°01' E 170°27'2 0.4 1010.8 11.2
2014-Aug-16 03:30N 51°00' E 170°25'5 1.0 1010.6 11.5
2014-Aug-15 22:30N 51°00' E 170°32'0 0.0 1011.0 11.0
2014-Aug-15 21:30N 51°00' E 170°32'0 0.0 1010.6 10.9
2014-Aug-15 19:30N 51°00' E 170°32'1 0.9 1010.4 10.8
2014-Aug-15 18:30N 51°01' E 170°33'2 1.1 1009.8 10.8
2014-Aug-15 16:30N 51°03' E 170°32'3 2.9 1009.1 10.8
2014-Aug-15 15:30N 51°04' E 170°28'1 0.5 1009.0 10.8
2014-Aug-15 12:30N 51°03' E 170°27'2 1.7 1008.6 10.8
2014-Aug-15 11:30N 51°04' E 170°28'2 0.9 1008.4 10.8
2014-Aug-15 09:30N 51°03' E 170°28'4 0.9 1008.3 10.8
2014-Aug-15 04:30N 51°04' E 170°35'1 0.5 1006.9 10.8
2014-Aug-15 02:30N 51°05' E 170°34'2 0.8 1006.9 10.8
2014-Aug-15 00:30N 51°06' E 170°35'3 0.5 1006.8 10.8
2014-Aug-14 18:30N 51°07' E 170°30'0 0.0 1006.7 10.7
2014-Aug-14 17:30N 51°07' E 170°30'1 0.6 1006.6 10.7
2014-Aug-14 16:30N 51°06' E 170°30'3 1.5 1006.3 10.7
2014-Aug-14 14:30N 51°06' E 170°35'2 1.2 1005.7 10.7
2014-Aug-14 12:30N 51°09' E 170°36'1 0.4 1005.7 10.7
2014-Aug-14 09:30N 51°10' E 170°37'4 1.8 1005.6 10.7
2014-Aug-14 07:30N 51°11' E 170°32'0 0.3 1004.7 10.7
2014-Aug-14 06:30N 51°11' E 170°32'1 0.3 1004.4 10.7
2014-Aug-14 03:30N 51°11' E 170°31'2 1.0 1004.5 10.7
2014-Aug-14 01:30N 51°09' E 170°30'1 1.0 1005.1 10.7
2014-Aug-14 00:30N 51°08' E 170°30'6 1.5 1005.4 10.7
2014-Aug-13 20:30N 51°12' E 170°37'4 1.0 1006.6 10.8
2014-Aug-13 16:30N 51°13' E 170°31'0 0.0 1008.6 10.8
2014-Aug-13 15:30N 51°13' E 170°31'0 0.1 1009.7 10.8
2014-Aug-13 14:30N 51°14' E 170°31'0 0.0 1010.3 10.8
2014-Aug-13 13:30N 51°14' E 170°31'4 0.9 1011.0 10.8
2014-Aug-13 09:30N 51°10' E 170°31'0 0.0 1012.3 10.9
2014-Aug-13 08:30N 51°10' E 170°31'5 2.5 1012.7 10.9
2014-Aug-13 06:30N 51°13' E 170°37'2 0.4 1012.5 11.0
2014-Aug-13 01:30N 51°15' E 170°36'1 1.1 1014.1 10.8
2014-Aug-13 00:30N 51°16' E 170°35'1 0.6 1013.8 10.7
2014-Aug-12 22:30N 51°16' E 170°33'3 0.5 1014.0 10.6
2014-Aug-12 16:30N 51°13' E 170°32'5 1.2 1013.6 10.5
2014-Aug-12 12:30N 51°18' E 170°34'0 0.0 1013.4 10.5
2014-Aug-12 10:30N 51°18' E 170°34'4 0.7 1013.1 10.5
2014-Aug-12 04:30N 51°17' E 170°27'0 0.0 1011.3 10.6
2014-Aug-12 02:30N 51°17' E 170°27'1 0.5 1010.2 10.5
2014-Aug-12 00:30N 51°17' E 170°28'1 1.3 1009.5 10.4
2014-Aug-11 23:30N 51°17' E 170°30'5 2.3 1008.9 10.4
2014-Aug-11 21:30N 51°21' E 170°32'1 0.6 1007.7 10.4
2014-Aug-11 19:30N 51°22' E 170°30'2 0.8 1006.7 10.4
2014-Aug-11 17:30N 51°23' E 170°28'1 0.5 1005.2 10.4
2014-Aug-11 16:30N 51°23' E 170°28'0 0.2 1004.6 10.4
2014-Aug-11 15:30N 51°24' E 170°28'3 0.6 1004.1 10.4
2014-Aug-11 10:30N 51°21' E 170°26'   999.0 10.5

Dump ship's entire track history